SouthEast Lincoln: Weather Underground Data


Davis Vantage Pro Historical Data
 
Daily Summary for January 19, 2018 Units:  English    Metric   Both
« Previous Day
Next Day »
Daily Weekly Monthly Yearly Custom
  Current: High: Low: Average:
Temperature: 34.2 °F 36.8 °F 34.2 °F 35.7 °F
Dew Point: 24.8 °F 26.0 °F 24.8 °F 25.3 °F
Humidity: 68% 68% 62% 66%
Wind Speed: 1.0mph 9.0mph 1.0mph 3.6mph
Wind Gust: 5.0mph 10.0mph - -
Wind:SW - - SSW
Pressure: 29.84 in 29.95 in 29.84 in -
Precipitation: 0.00 in      
Historical Graphs
 
 
Tabular Data for January 19, 2018
Time Temperature Dew Point Pressure Wind Wind Speed Wind Gust Humidity Rainfall Rate (Hourly) solar
00:01 36.5 °F 25.9 °F 29.95 in SW 6.0 mph 7.0 mph 65% 0.00 in 0.00 W/m2
00:06 36.6 °F 26.0 °F 29.95 in SSW 6.0 mph 7.0 mph 65% 0.00 in 0.00 W/m2
00:11 36.7 °F 25.7 °F 29.95 in WSW 9.0 mph 10.0 mph 64% 0.00 in 0.00 W/m2
00:16 36.7 °F 25.7 °F 29.95 in SW 1.0 mph 5.0 mph 64% 0.00 in 0.00 W/m2
00:21 36.7 °F 25.7 °F 29.95 in WSW 3.0 mph 7.0 mph 64% 0.00 in 0.00 W/m2
00:26 36.7 °F 25.7 °F 29.95 in South 5.0 mph 8.0 mph 64% 0.00 in 0.00 W/m2
00:31 36.7 °F 25.7 °F 29.94 in South 8.0 mph 8.0 mph 64% 0.00 in 0.00 W/m2
00:36 36.6 °F 25.6 °F 29.94 in SW 2.0 mph 6.0 mph 64% 0.00 in 0.00 W/m2
00:41 36.6 °F 25.6 °F 29.94 in SSW 6.0 mph 8.0 mph 64% 0.00 in 0.00 W/m2
00:46 36.6 °F 25.6 °F 29.94 in WSW 4.0 mph 6.0 mph 64% 0.00 in 0.00 W/m2
00:51 36.6 °F 25.6 °F 29.94 in SW 2.0 mph 3.0 mph 64% 0.00 in 0.00 W/m2
00:56 36.5 °F 25.5 °F 29.94 in SW 7.0 mph 9.0 mph 64% 0.00 in 0.00 W/m2
01:01 36.5 °F 25.5 °F 29.93 in SW 2.0 mph 5.0 mph 64% 0.00 in 0.00 W/m2
01:06 36.3 °F 25.3 °F 29.92 in SSE 6.0 mph 6.0 mph 64% 0.00 in 0.00 W/m2
01:11 36.2 °F 25.6 °F 29.92 in South 2.0 mph 3.0 mph 65% 0.00 in 0.00 W/m2
01:16 36.2 °F 25.6 °F 29.92 in South 4.0 mph 4.0 mph 65% 0.00 in 0.00 W/m2
01:21 36.1 °F 25.5 °F 29.92 in SSW 3.0 mph 5.0 mph 65% 0.00 in 0.00 W/m2
01:26 36.0 °F 25.4 °F 29.92 in WSW 2.0 mph 5.0 mph 65% 0.00 in 0.00 W/m2
01:31 36.0 °F 25.4 °F 29.92 in WSW 3.0 mph 7.0 mph 65% 0.00 in 0.00 W/m2
01:36 35.9 °F 25.3 °F 29.92 in South 1.0 mph 2.0 mph 65% 0.00 in 0.00 W/m2
01:41 35.9 °F 25.3 °F 29.92 in SW 3.0 mph 6.0 mph 65% 0.00 in 0.00 W/m2
01:46 35.7 °F 25.5 °F 29.92 in SW 2.0 mph 5.0 mph 66% 0.00 in 0.00 W/m2
01:51 35.7 °F 25.5 °F 29.92 in SW 2.0 mph 4.0 mph 66% 0.00 in 0.00 W/m2
01:56 35.7 °F 25.1 °F 29.92 in SW 4.0 mph 4.0 mph 65% 0.00 in 0.00 W/m2
02:01 35.7 °F 25.1 °F 29.92 in SW 2.0 mph 6.0 mph 65% 0.00 in 0.00 W/m2
02:06 35.8 °F 25.2 °F 29.92 in WSW 2.0 mph 6.0 mph 65% 0.00 in 0.00 W/m2
02:11 36.0 °F 25.0 °F 29.91 in SW 3.0 mph 6.0 mph 64% 0.00 in 0.00 W/m2
02:16 36.3 °F 25.3 °F 29.91 in SW 5.0 mph 6.0 mph 64% 0.00 in 0.00 W/m2
02:21 36.4 °F 25.0 °F 29.92 in WSW 2.0 mph 6.0 mph 63% 0.00 in 0.00 W/m2
02:26 36.5 °F 25.1 °F 29.91 in WSW 7.0 mph 7.0 mph 63% 0.00 in 0.00 W/m2
02:31 36.7 °F 25.3 °F 29.91 in SW 8.0 mph 8.0 mph 63% 0.00 in 0.00 W/m2
02:36 36.8 °F 25.0 °F 29.91 in SSW 3.0 mph 5.0 mph 62% 0.00 in 0.00 W/m2
02:41 36.8 °F 25.0 °F 29.91 in SW 3.0 mph 6.0 mph 62% 0.00 in 0.00 W/m2
02:46 36.8 °F 25.0 °F 29.91 in SSE 1.0 mph 5.0 mph 62% 0.00 in 0.00 W/m2
02:51 36.8 °F 25.0 °F 29.90 in SSW 5.0 mph 7.0 mph 62% 0.00 in 0.00 W/m2
02:56 36.7 °F 25.3 °F 29.90 in SSW 5.0 mph 6.0 mph 63% 0.00 in 0.00 W/m2
03:01 36.5 °F 25.1 °F 29.90 in SSW 2.0 mph 5.0 mph 63% 0.00 in 0.00 W/m2
03:06 36.3 °F 25.3 °F 29.90 in SE 2.0 mph 4.0 mph 64% 0.00 in 0.00 W/m2
03:11 36.2 °F 25.2 °F 29.90 in West 2.0 mph 5.0 mph 64% 0.00 in 0.00 W/m2
03:16 36.1 °F 25.1 °F 29.90 in SSE 2.0 mph 5.0 mph 64% 0.00 in 0.00 W/m2
03:21 36.0 °F 25.4 °F 29.89 in South 1.0 mph 1.0 mph 65% 0.00 in 0.00 W/m2
03:26 36.0 °F 25.4 °F 29.89 in SW 3.0 mph 4.0 mph 65% 0.00 in 0.00 W/m2
03:31 36.0 °F 25.4 °F 29.89 in SSW 2.0 mph 4.0 mph 65% 0.00 in 0.00 W/m2
03:36 35.9 °F 25.3 °F 29.89 in SSE 4.0 mph 4.0 mph 65% 0.00 in 0.00 W/m2
03:41 35.9 °F 25.3 °F 29.89 in SSW 1.0 mph 2.0 mph 65% 0.00 in 0.00 W/m2
03:46 35.9 °F 25.3 °F 29.88 in SW 3.0 mph 3.0 mph 65% 0.00 in 0.00 W/m2
03:51 35.9 °F 25.7 °F 29.88 in South 3.0 mph 5.0 mph 66% 0.00 in 0.00 W/m2
03:56 35.8 °F 25.6 °F 29.88 in WSW 3.0 mph 3.0 mph 66% 0.00 in 0.00 W/m2
04:01 35.8 °F 25.6 °F 29.88 in SW 2.0 mph 2.0 mph 66% 0.00 in 0.00 W/m2
04:06 35.9 °F 25.7 °F 29.88 in SSW 3.0 mph 5.0 mph 66% 0.00 in 0.00 W/m2
04:11 35.9 °F 25.7 °F 29.88 in South 3.0 mph 5.0 mph 66% 0.00 in 0.00 W/m2
04:16 35.9 °F 25.7 °F 29.88 in SSW 1.0 mph 5.0 mph 66% 0.00 in 0.00 W/m2
04:21 35.9 °F 25.7 °F 29.88 in South 2.0 mph 5.0 mph 66% 0.00 in 0.00 W/m2
04:26 35.9 °F 25.7 °F 29.88 in South 5.0 mph 6.0 mph 66% 0.00 in 0.00 W/m2
04:31 35.9 °F 25.7 °F 29.88 in SSW 3.0 mph 6.0 mph 66% 0.00 in 0.00 W/m2
04:36 35.9 °F 25.7 °F 29.88 in SW 1.0 mph 4.0 mph 66% 0.00 in 0.00 W/m2
04:41 35.9 °F 25.7 °F 29.88 in South 4.0 mph 7.0 mph 66% 0.00 in 0.00 W/m2
04:46 35.9 °F 25.3 °F 29.88 in SSW 5.0 mph 5.0 mph 65% 0.00 in 0.00 W/m2
04:51 35.9 °F 25.3 °F 29.88 in SSW 2.0 mph 2.0 mph 65% 0.00 in 0.00 W/m2
04:56 35.8 °F 25.6 °F 29.88 in SSE 5.0 mph 5.0 mph 66% 0.00 in 0.00 W/m2
05:01 35.8 °F 25.2 °F 29.88 in SSW 1.0 mph 2.0 mph 65% 0.00 in 0.00 W/m2
05:06 35.7 °F 25.5 °F 29.87 in South 1.0 mph 5.0 mph 66% 0.00 in 0.00 W/m2
05:11 35.6 °F 25.4 °F 29.87 in South 1.0 mph 4.0 mph 66% 0.00 in 0.00 W/m2
05:16 35.5 °F 25.3 °F 29.87 in SSW 8.0 mph 8.0 mph 66% 0.00 in 0.00 W/m2
05:21 35.4 °F 25.2 °F 29.87 in South 4.0 mph 7.0 mph 66% 0.00 in 0.00 W/m2
05:26 35.3 °F 25.5 °F 29.87 in WNW 2.0 mph 4.0 mph 67% 0.00 in 0.00 W/m2
05:31 35.3 °F 25.5 °F 29.87 in SSW 6.0 mph 6.0 mph 67% 0.00 in 0.00 W/m2
05:36 35.2 °F 25.4 °F 29.86 in South 5.0 mph 6.0 mph 67% 0.00 in 0.00 W/m2
05:41 35.2 °F 25.4 °F 29.86 in SSW 2.0 mph 4.0 mph 67% 0.00 in 0.00 W/m2
05:46 35.1 °F 25.3 °F 29.86 in SW 2.0 mph 6.0 mph 67% 0.00 in 0.00 W/m2
05:51 35.0 °F 25.2 °F 29.86 in SW 4.0 mph 5.0 mph 67% 0.00 in 0.00 W/m2
05:56 35.0 °F 25.2 °F 29.85 in South 6.0 mph 7.0 mph 67% 0.00 in 0.00 W/m2
06:01 35.0 °F 25.2 °F 29.85 in SSW 2.0 mph 5.0 mph 67% 0.00 in 0.00 W/m2
06:06 34.9 °F 25.1 °F 29.85 in SSW 2.0 mph 8.0 mph 67% 0.00 in 0.00 W/m2
06:11 34.9 °F 25.1 °F 29.85 in NW 5.0 mph 6.0 mph 67% 0.00 in 0.00 W/m2
06:16 34.9 °F 25.1 °F 29.85 in ESE 7.0 mph 7.0 mph 67% 0.00 in 0.00 W/m2
06:21 34.8 °F 25.3 °F 29.85 in SSW 2.0 mph 6.0 mph 68% 0.00 in 0.00 W/m2
06:26 34.7 °F 25.2 °F 29.85 in SW 3.0 mph 8.0 mph 68% 0.00 in 0.00 W/m2
06:31 34.7 °F 25.2 °F 29.85 in SSW 5.0 mph 10.0 mph 68% 0.00 in 0.00 W/m2
06:36 34.6 °F 25.1 °F 29.85 in WSW 4.0 mph 5.0 mph 68% 0.00 in 0.00 W/m2
06:41 34.5 °F 25.0 °F 29.85 in SW 3.0 mph 6.0 mph 68% 0.00 in 0.00 W/m2
06:46 34.5 °F 25.0 °F 29.85 in WSW 6.0 mph 10.0 mph 68% 0.00 in 0.00 W/m2
06:51 34.4 °F 25.0 °F 29.85 in SSE 7.0 mph 7.0 mph 68% 0.00 in 0.00 W/m2
06:56 34.4 °F 25.0 °F 29.85 in SW 2.0 mph 6.0 mph 68% 0.00 in 0.00 W/m2
07:01 34.3 °F 24.9 °F 29.85 in SW 8.0 mph 8.0 mph 68% 0.00 in 0.00 W/m2
07:06 34.3 °F 24.9 °F 29.84 in SE 6.0 mph 6.0 mph 68% 0.00 in 0.00 W/m2
07:11 34.3 °F 24.9 °F 29.85 in SSW 3.0 mph 7.0 mph 68% 0.00 in 0.00 W/m2
07:16 34.3 °F 24.9 °F 29.85 in WSW 4.0 mph 5.0 mph 68% 0.00 in 0.00 W/m2
07:21 34.2 °F 24.8 °F 29.84 in SSW 3.0 mph 6.0 mph 68% 0.00 in 0.00 W/m2
07:26 34.2 °F 24.8 °F 29.84 in SW 9.0 mph 9.0 mph 68% 0.00 in 0.00 W/m2
07:31 34.2 °F 24.8 °F 29.84 in SW 1.0 mph 5.0 mph 68% 0.00 in 0.00 W/m2
SouthEast Lincoln Weather
Compliments of Weather Underground - 2 mb